createdAt,value
2018-12-23T00:00:16.173Z,-3.40
2018-12-23T00:02:44.897Z,-3.50
2018-12-23T00:05:13.375Z,-3.40
2018-12-23T00:07:41.930Z,-3.50
2018-12-23T00:10:10.546Z,-3.50
2018-12-23T00:12:39.027Z,-3.40
2018-12-23T00:15:08.871Z,-3.50
2018-12-23T00:17:37.652Z,-3.40
2018-12-23T00:20:08.406Z,-3.40
2018-12-23T00:22:36.897Z,-3.40
2018-12-23T00:25:05.566Z,-3.40
2018-12-23T00:27:34.506Z,-3.40
2018-12-23T00:30:03.294Z,-3.50
2018-12-23T00:32:31.858Z,-3.50
2018-12-23T00:35:00.386Z,-3.50
2018-12-23T00:37:28.939Z,-3.40
2018-12-23T00:39:57.441Z,-3.50
2018-12-23T00:42:25.918Z,-3.50
2018-12-23T00:44:54.390Z,-3.60
2018-12-23T00:47:22.854Z,-3.60
2018-12-23T00:49:51.337Z,-3.60
2018-12-23T00:52:19.891Z,-3.50
2018-12-23T00:54:48.358Z,-3.50
2018-12-23T00:57:19.267Z,-3.60
2018-12-23T00:59:47.805Z,-3.60
2018-12-23T01:02:16.273Z,-3.60
2018-12-23T01:04:44.751Z,-3.60
2018-12-23T01:07:13.233Z,-3.60
2018-12-23T01:09:41.898Z,-3.60
2018-12-23T01:12:10.387Z,-3.70
2018-12-23T01:14:38.858Z,-3.60
2018-12-23T01:17:07.338Z,-3.60
2018-12-23T01:19:35.827Z,-3.60
2018-12-23T01:22:04.322Z,-3.60
2018-12-23T01:24:32.812Z,-3.60
2018-12-23T01:27:01.417Z,-3.70
2018-12-23T01:29:29.970Z,-3.60
2018-12-23T01:31:58.482Z,-3.60
2018-12-23T01:34:26.990Z,-3.60
2018-12-23T01:36:56.158Z,-3.60
2018-12-23T01:39:24.641Z,-3.60
2018-12-23T01:41:53.161Z,-3.60
2018-12-23T01:44:22.063Z,-3.70
2018-12-23T01:46:50.544Z,-3.70
2018-12-23T01:49:19.042Z,-3.70
2018-12-23T01:51:47.547Z,-3.70
2018-12-23T01:54:16.055Z,-3.70
2018-12-23T01:56:44.569Z,-3.60
2018-12-23T01:59:13.056Z,-3.70
2018-12-23T02:01:41.558Z,-3.80
2018-12-23T02:04:10.554Z,-3.80
2018-12-23T02:06:39.546Z,-3.90
2018-12-23T02:09:08.045Z,-3.90
2018-12-23T02:11:36.597Z,-3.90
2018-12-23T02:14:05.462Z,-4.00
2018-12-23T02:19:02.111Z,-3.90
2018-12-23T02:21:30.589Z,-3.90
2018-12-23T02:23:59.101Z,-3.80
2018-12-23T02:26:27.667Z,-3.70
2018-12-23T02:28:56.209Z,-3.70
2018-12-23T02:31:24.685Z,-3.70
2018-12-23T02:33:53.174Z,-3.70
2018-12-23T02:36:21.682Z,-3.70
2018-12-23T02:38:50.182Z,-3.60
2018-12-23T02:41:18.797Z,-3.70
2018-12-23T02:43:47.652Z,-3.70
2018-12-23T02:46:16.138Z,-3.70
2018-12-23T02:48:44.629Z,-3.70
2018-12-23T02:51:13.135Z,-3.70
2018-12-23T02:53:41.677Z,-3.80
2018-12-23T02:56:10.279Z,-3.90
2018-12-23T02:58:38.782Z,-3.80
2018-12-23T03:01:07.281Z,-3.80
2018-12-23T03:03:35.785Z,-3.80
2018-12-23T03:06:06.117Z,-3.80
2018-12-23T03:08:35.203Z,-3.70
2018-12-23T03:11:03.727Z,-3.60
2018-12-23T03:13:32.602Z,-3.60
2018-12-23T03:16:01.086Z,-3.70
2018-12-23T03:18:29.585Z,-3.70
2018-12-23T03:20:58.488Z,-3.70
2018-12-23T03:23:26.982Z,-3.80
2018-12-23T03:25:55.630Z,-3.80
2018-12-23T03:28:24.158Z,-3.80
2018-12-23T03:30:52.678Z,-3.70
2018-12-23T03:33:21.204Z,-3.70
2018-12-23T03:35:49.697Z,-3.80
2018-12-23T03:38:18.203Z,-3.70
2018-12-23T03:40:46.722Z,-3.70
2018-12-23T03:43:15.219Z,-3.80
2018-12-23T03:45:43.706Z,-3.70
2018-12-23T03:48:12.198Z,-3.70
2018-12-23T03:50:41.058Z,-3.70
2018-12-23T03:53:09.541Z,-3.80
2018-12-23T03:55:38.062Z,-3.90
2018-12-23T03:58:06.555Z,-3.90
2018-12-23T04:00:35.034Z,-3.90
2018-12-23T04:03:03.501Z,-3.80
2018-12-23T04:05:31.982Z,-3.90
2018-12-23T04:08:00.514Z,-3.90
2018-12-23T04:10:29.150Z,-3.80
2018-12-23T04:12:58.094Z,-3.90
2018-12-23T04:15:26.564Z,-3.90
2018-12-23T04:17:55.029Z,-4.00
2018-12-23T04:20:23.496Z,-4.00
2018-12-23T04:22:51.998Z,-3.90
2018-12-23T04:25:20.462Z,-4.00
2018-12-23T04:27:48.966Z,-4.00
2018-12-23T04:30:17.462Z,-4.00
2018-12-23T04:32:45.947Z,-4.00
2018-12-23T04:35:14.458Z,-4.10
2018-12-23T04:37:42.959Z,-4.10
2018-12-23T04:40:11.434Z,-4.10
2018-12-23T04:42:39.940Z,-4.00
2018-12-23T04:45:08.433Z,-3.90
2018-12-23T04:47:36.921Z,-4.00
2018-12-23T04:50:07.016Z,-4.10
2018-12-23T04:52:35.499Z,-4.20
2018-12-23T04:55:04.126Z,-4.20
2018-12-23T04:57:32.621Z,-4.20
2018-12-23T05:00:01.153Z,-4.10
2018-12-23T05:02:29.720Z,-4.10
2018-12-23T05:04:58.194Z,-4.20
2018-12-23T05:07:26.706Z,-4.20
2018-12-23T05:09:55.260Z,-4.20
2018-12-23T05:12:23.745Z,-4.30
2018-12-23T05:14:52.252Z,-4.20
2018-12-23T05:17:20.723Z,-4.20
2018-12-23T05:19:49.195Z,-4.30
2018-12-23T05:22:17.666Z,-4.30
2018-12-23T05:24:46.191Z,-4.30
2018-12-23T05:27:14.661Z,-4.30
2018-12-23T05:29:43.179Z,-4.20
2018-12-23T05:32:11.691Z,-4.20
2018-12-23T05:34:40.174Z,-4.20
2018-12-23T05:37:08.650Z,-4.20
2018-12-23T05:39:37.141Z,-4.20
2018-12-23T05:42:05.641Z,-4.30
2018-12-23T05:44:34.122Z,-4.30
2018-12-23T05:47:02.593Z,-4.30
2018-12-23T05:49:31.057Z,-4.30
2018-12-23T05:51:59.530Z,-4.40
2018-12-23T05:54:28.014Z,-4.40
2018-12-23T05:56:56.493Z,-4.30
2018-12-23T05:59:24.999Z,-4.30
2018-12-23T06:01:53.502Z,-4.30
2018-12-23T06:04:21.966Z,-4.30
2018-12-23T06:06:50.414Z,-4.30
2018-12-23T06:09:18.898Z,-4.30
2018-12-23T06:11:47.394Z,-4.20
2018-12-23T06:14:16.097Z,-4.30
2018-12-23T06:16:44.706Z,-4.30
2018-12-23T06:19:13.183Z,-4.30
2018-12-23T06:21:41.659Z,-4.20
2018-12-23T06:24:10.121Z,-4.30
2018-12-23T06:26:38.594Z,-4.30
2018-12-23T06:29:07.086Z,-4.40
2018-12-23T06:31:35.658Z,-4.50
2018-12-23T06:34:04.551Z,-4.50
2018-12-23T06:36:33.042Z,-4.40
2018-12-23T06:39:01.540Z,-4.50
2018-12-23T06:41:30.035Z,-4.50
2018-12-23T06:43:58.941Z,-4.40
2018-12-23T06:46:27.422Z,-4.30
2018-12-23T06:48:55.892Z,-4.50
2018-12-23T06:51:24.901Z,-4.50
2018-12-23T06:53:53.729Z,-4.40
2018-12-23T06:56:22.202Z,-4.40
2018-12-23T06:58:50.693Z,-4.40
2018-12-23T07:01:19.174Z,-4.30
2018-12-23T07:03:47.682Z,-4.30
2018-12-23T07:06:16.200Z,-4.20
2018-12-23T07:08:44.670Z,-4.20
2018-12-23T07:11:13.149Z,-4.30
2018-12-23T07:13:41.639Z,-4.40
2018-12-23T07:16:10.114Z,-4.30
2018-12-23T07:18:38.578Z,-4.40
2018-12-23T07:21:07.054Z,-4.40
2018-12-23T07:23:35.522Z,-4.40
2018-12-23T07:26:04.006Z,-4.30
2018-12-23T07:28:32.472Z,-4.30
2018-12-23T07:31:01.034Z,-4.30
2018-12-23T07:33:29.530Z,-4.30
2018-12-23T07:35:58.002Z,-4.30
2018-12-23T07:38:26.486Z,-4.30
2018-12-23T07:40:55.214Z,-4.40
2018-12-23T07:43:23.704Z,-4.40
2018-12-23T07:45:53.553Z,-4.40
2018-12-23T07:48:22.035Z,-4.40
2018-12-23T07:50:50.778Z,-4.30
2018-12-23T07:53:19.286Z,-4.40
2018-12-23T07:55:47.768Z,-4.30
2018-12-23T07:58:16.246Z,-4.40
2018-12-23T08:00:44.755Z,-4.30
2018-12-23T08:03:13.274Z,-4.40
2018-12-23T08:05:41.737Z,-4.30
2018-12-23T08:08:10.237Z,-4.40
2018-12-23T08:10:38.715Z,-4.30
2018-12-23T08:13:07.171Z,-4.40
2018-12-23T08:15:35.697Z,-4.30
2018-12-23T08:18:05.860Z,-4.30
2018-12-23T08:20:34.709Z,-4.30
2018-12-23T08:23:03.177Z,-4.30
2018-12-23T08:29:09.448Z,-4.40
2018-12-23T08:31:39.237Z,-4.40
2018-12-23T08:34:27.967Z,-4.40
2018-12-23T08:37:16.730Z,-4.50
2018-12-23T08:46:09.959Z,-4.30
2018-12-23T08:48:58.714Z,-4.30
2018-12-23T08:51:47.419Z,-4.30
2018-12-23T09:06:37.461Z,-4.30
2018-12-23T09:09:26.183Z,-4.20
2018-12-23T09:12:14.907Z,-4.20
2018-12-23T09:24:17.523Z,-4.20
2018-12-23T09:26:47.298Z,-4.30
2018-12-23T09:29:17.089Z,-4.30
2018-12-23T09:31:46.931Z,-4.30
2018-12-23T09:34:16.781Z,-4.20
2018-12-23T09:36:47.775Z,-4.30
2018-12-23T09:39:17.773Z,-4.30
2018-12-23T09:41:47.877Z,-4.30
2018-12-23T09:44:18.044Z,-4.30
2018-12-23T09:46:48.312Z,-4.30
2018-12-23T09:49:37.702Z,-4.40
2018-12-23T09:52:08.546Z,-4.40
2018-12-23T09:54:57.771Z,-4.30
2018-12-23T09:57:46.695Z,-4.20
2018-12-23T10:16:09.511Z,-4.50
2018-12-23T10:31:29.304Z,-4.30
2018-12-23T10:43:15.103Z,-4.30
2018-12-23T10:45:45.474Z,-4.20
2018-12-23T10:48:15.754Z,-4.20
2018-12-23T10:50:46.315Z,-4.30
2018-12-23T10:53:16.119Z,-4.30
2018-12-23T10:55:45.951Z,-4.40
2018-12-23T10:58:15.725Z,-4.30
2018-12-23T11:00:45.491Z,-4.40
2018-12-23T11:03:15.254Z,-4.40
2018-12-23T11:05:45.019Z,-4.40
2018-12-23T11:08:33.727Z,-4.40
2018-12-23T11:11:03.492Z,-4.20
2018-12-23T11:13:52.197Z,-4.30
2018-12-23T11:25:36.979Z,-4.40
2018-12-23T11:28:25.755Z,-4.30
2018-12-23T11:31:14.471Z,-4.20
2018-12-23T11:36:49.811Z,-4.20
2018-12-23T11:39:19.775Z,-4.10
2018-12-23T11:42:08.859Z,-4.10
2018-12-23T11:50:50.260Z,-4.10
2018-12-23T11:53:39.496Z,-4.00
2018-12-23T11:56:28.743Z,-4.10
2018-12-23T12:02:04.085Z,-4.10
2018-12-23T12:04:34.074Z,-4.10
2018-12-23T12:07:23.334Z,-4.10
2018-12-23T12:10:12.495Z,-4.00
2018-12-23T12:16:02.681Z,-4.10
2018-12-23T12:43:25.993Z,-4.60
2018-12-23T12:46:00.518Z,-4.40
2018-12-23T12:48:27.850Z,-4.40
2018-12-23T12:50:58.200Z,-4.50
2018-12-23T12:53:28.304Z,-4.40
2018-12-23T12:55:58.636Z,-4.40
2018-12-23T12:58:28.768Z,-4.50
2018-12-23T13:01:17.483Z,-4.40
2018-12-23T13:03:47.259Z,-4.30
2018-12-23T13:06:17.025Z,-4.40
2018-12-23T13:08:47.025Z,-4.30
2018-12-23T13:11:16.893Z,-4.50
2018-12-23T13:13:46.742Z,-4.40
2018-12-23T13:16:16.522Z,-4.40
2018-12-23T13:18:46.400Z,-4.40
2018-12-23T13:21:16.191Z,-4.40
2018-12-23T13:23:45.979Z,-4.50
2018-12-23T13:26:15.755Z,-4.50
2018-12-23T13:28:46.297Z,-4.50
2018-12-23T13:31:16.128Z,-4.50
2018-12-23T13:33:45.985Z,-4.50
2018-12-23T13:36:15.827Z,-4.50
2018-12-23T13:39:09.071Z,-4.50
2018-12-23T13:42:09.846Z,-4.50
2018-12-23T13:45:27.595Z,-4.60
2018-12-23T13:48:16.275Z,-4.60
2018-12-23T13:51:40.789Z,-4.60
2018-12-23T13:54:46.047Z,-4.60
2018-12-23T14:01:19.139Z,-4.60
2018-12-23T14:08:00.780Z,-4.50
2018-12-23T14:11:02.083Z,-4.50
2018-12-23T14:13:32.140Z,-4.50
2018-12-23T14:16:02.421Z,-4.40
2018-12-23T14:18:32.645Z,-4.50
2018-12-23T14:21:02.422Z,-4.40
2018-12-23T14:23:32.184Z,-4.30
2018-12-23T14:26:02.403Z,-4.40
2018-12-23T14:28:32.767Z,-4.40
2018-12-23T14:31:03.011Z,-4.30
2018-12-23T14:33:32.961Z,-4.30
2018-12-23T14:36:03.140Z,-4.30
2018-12-23T14:38:33.455Z,-4.40
2018-12-23T14:41:03.753Z,-4.30
2018-12-23T14:43:33.575Z,-4.30
2018-12-23T14:46:03.351Z,-4.40
2018-12-23T14:48:52.139Z,-4.40
2018-12-23T14:51:21.903Z,-4.30
2018-12-23T14:53:51.671Z,-4.30
2018-12-23T14:56:21.443Z,-4.20
2018-12-23T14:58:51.296Z,-4.40
2018-12-23T15:01:21.185Z,-4.40
2018-12-23T15:03:51.162Z,-4.40
2018-12-23T15:06:20.931Z,-4.40
2018-12-23T15:08:50.695Z,-4.40
2018-12-23T15:11:20.474Z,-4.40
2018-12-23T15:13:50.234Z,-4.40
2018-12-23T15:16:20.029Z,-4.30
2018-12-23T15:18:50.303Z,-4.30
2018-12-23T15:21:20.097Z,-4.20
2018-12-23T15:23:49.943Z,-4.20
2018-12-23T15:26:20.162Z,-4.20
2018-12-23T15:28:50.354Z,-4.20
2018-12-23T15:31:20.891Z,-4.20
2018-12-23T15:33:50.773Z,-4.20
2018-12-23T15:36:22.528Z,-4.10
2018-12-23T15:38:52.818Z,-4.10
2018-12-23T15:41:22.919Z,-4.20
2018-12-23T15:43:54.323Z,-4.20
2018-12-23T15:46:25.078Z,-4.20
2018-12-23T15:49:14.357Z,-4.20
2018-12-23T15:51:44.686Z,-4.10
2018-12-23T15:54:17.017Z,-4.20
2018-12-23T15:56:48.730Z,-4.30
2018-12-23T15:59:19.203Z,-4.30
2018-12-23T16:01:49.610Z,-4.40
2018-12-23T16:04:20.151Z,-4.30
2018-12-23T16:06:50.400Z,-4.40
2018-12-23T16:09:20.724Z,-4.40
2018-12-23T16:11:50.547Z,-4.40
2018-12-23T16:14:20.323Z,-4.40
2018-12-23T16:16:50.078Z,-4.50
2018-12-23T16:19:19.855Z,-4.50
2018-12-23T16:21:49.623Z,-4.40
2018-12-23T16:24:19.438Z,-4.40
2018-12-23T16:26:49.291Z,-4.30
2018-12-23T16:29:37.994Z,-4.40
2018-12-23T16:32:07.837Z,-4.30
2018-12-23T16:34:37.719Z,-4.40
2018-12-23T16:37:07.578Z,-4.40
2018-12-23T16:39:37.350Z,-4.20
2018-12-23T16:42:07.213Z,-4.20
2018-12-23T16:44:36.990Z,-4.20
2018-12-23T16:47:07.026Z,-4.20
2018-12-23T16:49:55.973Z,-4.20
2018-12-23T16:52:45.106Z,-4.20
2018-12-23T17:01:39.942Z,-4.20
2018-12-23T17:04:28.980Z,-4.20
2018-12-23T17:19:18.826Z,-4.10
2018-12-23T17:22:07.541Z,-4.10
2018-12-23T17:24:56.326Z,-4.10
2018-12-23T17:36:54.791Z,-4.00
2018-12-23T17:39:43.552Z,-3.90
2018-12-23T18:04:03.001Z,-3.90
2018-12-23T18:09:52.875Z,-3.90
2018-12-23T18:21:51.580Z,-3.90
2018-12-23T18:40:00.208Z,-3.90
2018-12-23T18:42:49.013Z,-3.90
2018-12-23T18:54:34.105Z,-3.70
2018-12-23T18:57:22.895Z,-3.70
2018-12-23T19:13:06.976Z,-3.70
2018-12-23T19:16:11.900Z,-3.70
2018-12-23T19:19:18.229Z,-3.80
2018-12-23T19:31:17.999Z,-3.80
2018-12-23T19:41:06.476Z,-3.70
2018-12-23T19:44:18.185Z,-3.70
2018-12-23T19:47:40.695Z,-3.60
2018-12-23T19:53:57.574Z,-3.60
2018-12-23T19:57:08.540Z,-3.70
2018-12-23T20:00:32.874Z,-3.70
2018-12-23T20:04:01.271Z,-3.70
2018-12-23T20:07:03.375Z,-3.70
2018-12-23T20:09:59.735Z,-3.60
2018-12-23T20:13:03.809Z,-3.70
2018-12-23T20:16:04.462Z,-3.60
2018-12-23T20:19:16.724Z,-3.70
2018-12-23T20:22:41.496Z,-3.60
2018-12-23T20:25:39.148Z,-3.60
2018-12-23T20:28:44.555Z,-3.60
2018-12-23T20:31:46.320Z,-3.60
2018-12-23T20:34:46.459Z,-3.60
2018-12-23T20:37:54.448Z,-3.60
2018-12-23T20:44:19.293Z,-3.60
2018-12-23T20:47:37.972Z,-3.60
2018-12-23T20:50:31.866Z,-3.60
2018-12-23T20:53:57.475Z,-3.50
2018-12-23T20:57:19.865Z,-3.60
2018-12-23T21:00:41.415Z,-3.60
2018-12-23T21:04:03.884Z,-3.60
2018-12-23T21:07:24.775Z,-3.60
2018-12-23T21:10:56.295Z,-3.60
2018-12-23T21:14:06.971Z,-3.70
2018-12-23T21:16:55.716Z,-3.60
2018-12-23T21:20:01.494Z,-3.60
2018-12-23T21:23:00.063Z,-3.50
2018-12-23T21:26:12.283Z,-3.50
2018-12-23T21:28:59.846Z,-3.50
2018-12-23T21:32:22.243Z,-3.50
2018-12-23T21:35:38.599Z,-3.40
2018-12-23T21:38:53.251Z,-3.40
2018-12-23T21:42:18.511Z,-3.40
2018-12-23T21:45:34.366Z,-3.40
2018-12-23T21:48:59.835Z,-3.40
2018-12-23T21:52:06.243Z,-3.40
2018-12-23T21:55:05.603Z,-3.40
2018-12-23T21:58:24.154Z,-3.40
2018-12-23T22:01:45.242Z,-3.50
2018-12-23T22:05:07.719Z,-3.50
2018-12-23T22:08:07.566Z,-3.40
2018-12-23T22:11:04.690Z,-3.50
2018-12-23T22:13:34.466Z,-3.50
2018-12-23T22:16:04.226Z,-3.50
2018-12-23T22:18:34.102Z,-3.40
2018-12-23T22:21:03.965Z,-3.50
2018-12-23T22:23:33.730Z,-3.40
2018-12-23T22:26:22.531Z,-3.40
2018-12-23T22:32:11.079Z,-3.40
2018-12-23T22:34:59.779Z,-3.40
2018-12-23T22:37:44.491Z,-3.40
2018-12-23T22:49:20.643Z,-3.20
2018-12-23T22:52:09.354Z,-3.40
2018-12-23T23:06:59.297Z,-3.50
2018-12-23T23:09:48.066Z,-3.50
2018-12-23T23:34:09.295Z,-3.60
2018-12-23T23:52:31.575Z,-3.50
